sensor_id;sensor_type;location;lat;lon;timestamp;P1;durP1;ratioP1;P2;durP2;ratioP2
10174;SDS011;18221;38.704;0.152;2023-02-13T00:05:03;4.03;;;3.47;;
10174;SDS011;18221;38.704;0.152;2023-02-13T00:07:32;4.00;;;3.57;;
10174;SDS011;18221;38.704;0.152;2023-02-13T00:10:00;3.87;;;3.40;;
10174;SDS011;18221;38.704;0.152;2023-02-13T00:12:28;4.00;;;3.30;;
10174;SDS011;18221;38.704;0.152;2023-02-13T00:14:57;4.53;;;3.73;;
10174;SDS011;18221;38.704;0.152;2023-02-13T00:17:25;4.10;;;3.70;;
10174;SDS011;18221;38.704;0.152;2023-02-13T00:19:55;4.43;;;3.67;;
10174;SDS011;18221;38.704;0.152;2023-02-13T00:22:23;5.37;;;3.97;;
10174;SDS011;18221;38.704;0.152;2023-02-13T00:24:52;6.30;;;4.10;;
10174;SDS011;18221;38.704;0.152;2023-02-13T00:27:20;4.43;;;3.80;;
10174;SDS011;18221;38.704;0.152;2023-02-13T00:29:48;4.20;;;3.80;;
10174;SDS011;18221;38.704;0.152;2023-02-13T00:32:16;4.97;;;4.07;;
10174;SDS011;18221;38.704;0.152;2023-02-13T00:34:45;4.47;;;3.80;;
10174;SDS011;18221;38.704;0.152;2023-02-13T00:37:15;4.70;;;4.00;;
10174;SDS011;18221;38.704;0.152;2023-02-13T00:39:43;6.97;;;4.00;;
10174;SDS011;18221;38.704;0.152;2023-02-13T00:42:11;7.50;;;3.40;;
10174;SDS011;18221;38.704;0.152;2023-02-13T00:44:39;4.40;;;3.80;;
10174;SDS011;18221;38.704;0.152;2023-02-13T00:47:07;5.57;;;3.40;;
10174;SDS011;18221;38.704;0.152;2023-02-13T00:49:39;6.27;;;3.80;;
10174;SDS011;18221;38.704;0.152;2023-02-13T00:52:07;4.97;;;3.47;;
10174;SDS011;18221;38.704;0.152;2023-02-13T00:54:37;4.90;;;3.50;;
10174;SDS011;18221;38.704;0.152;2023-02-13T00:57:05;5.87;;;3.40;;
10174;SDS011;18221;38.704;0.152;2023-02-13T00:59:33;5.17;;;3.37;;
10174;SDS011;18221;38.704;0.152;2023-02-13T01:02:01;4.53;;;3.33;;
10174;SDS011;18221;38.704;0.152;2023-02-13T01:04:29;4.30;;;3.40;;
10174;SDS011;18221;38.704;0.152;2023-02-13T01:06:57;4.47;;;3.23;;
10174;SDS011;18221;38.704;0.152;2023-02-13T01:09:26;3.70;;;3.40;;
10174;SDS011;18221;38.704;0.152;2023-02-13T01:11:56;4.77;;;3.53;;
10174;SDS011;18221;38.704;0.152;2023-02-13T01:14:25;5.10;;;3.77;;
10174;SDS011;18221;38.704;0.152;2023-02-13T01:16:53;4.67;;;3.50;;
10174;SDS011;18221;38.704;0.152;2023-02-13T01:19:21;5.97;;;3.70;;
10174;SDS011;18221;38.704;0.152;2023-02-13T01:21:49;4.73;;;3.30;;
10174;SDS011;18221;38.704;0.152;2023-02-13T01:24:19;4.73;;;3.20;;
10174;SDS011;18221;38.704;0.152;2023-02-13T01:26:47;3.50;;;3.20;;
10174;SDS011;18221;38.704;0.152;2023-02-13T01:29:16;6.20;;;3.33;;
10174;SDS011;18221;38.704;0.152;2023-02-13T01:31:44;5.20;;;3.50;;
10174;SDS011;18221;38.704;0.152;2023-02-13T01:34:13;4.97;;;3.30;;
10174;SDS011;18221;38.704;0.152;2023-02-13T01:36:41;5.93;;;3.73;;
10174;SDS011;18221;38.704;0.152;2023-02-13T01:39:09;4.80;;;3.53;;
10174;SDS011;18221;38.704;0.152;2023-02-13T01:41:38;4.10;;;3.23;;
10174;SDS011;18221;38.704;0.152;2023-02-13T01:47:14;3.70;;;3.30;;
10174;SDS011;18221;38.704;0.152;2023-02-13T01:49:54;3.77;;;3.27;;
10174;SDS011;18221;38.704;0.152;2023-02-13T01:52:32;4.23;;;3.03;;
10174;SDS011;18221;38.704;0.152;2023-02-13T01:55:06;5.67;;;3.67;;
10174;SDS011;18221;38.704;0.152;2023-02-13T01:57:37;4.00;;;3.60;;
10174;SDS011;18221;38.704;0.152;2023-02-13T02:00:11;4.20;;;3.40;;
10174;SDS011;18221;38.704;0.152;2023-02-13T02:02:43;5.97;;;3.20;;
10174;SDS011;18221;38.704;0.152;2023-02-13T02:05:17;3.73;;;3.40;;
10174;SDS011;18221;38.704;0.152;2023-02-13T02:07:47;3.83;;;3.40;;
10174;SDS011;18221;38.704;0.152;2023-02-13T02:10:17;4.33;;;3.17;;
10174;SDS011;18221;38.704;0.152;2023-02-13T02:12:48;5.43;;;3.63;;
10174;SDS011;18221;38.704;0.152;2023-02-13T02:15:27;5.70;;;3.63;;
10174;SDS011;18221;38.704;0.152;2023-02-13T02:17:56;5.90;;;3.50;;
10174;SDS011;18221;38.704;0.152;2023-02-13T02:20:28;3.77;;;3.40;;
10174;SDS011;18221;38.704;0.152;2023-02-13T02:27:04;4.40;;;3.60;;
10174;SDS011;18221;38.704;0.152;2023-02-13T02:33:18;6.83;;;3.83;;
10174;SDS011;18221;38.704;0.152;2023-02-13T02:35:59;4.27;;;3.77;;
10174;SDS011;18221;38.704;0.152;2023-02-13T02:38:47;3.80;;;3.33;;
10174;SDS011;18221;38.704;0.152;2023-02-13T02:41:31;5.43;;;3.90;;
10174;SDS011;18221;38.704;0.152;2023-02-13T02:44:17;4.10;;;3.57;;
10174;SDS011;18221;38.704;0.152;2023-02-13T02:47:12;4.10;;;3.50;;
10174;SDS011;18221;38.704;0.152;2023-02-13T02:50:15;8.00;;;3.43;;
10174;SDS011;18221;38.704;0.152;2023-02-13T02:53:06;3.60;;;3.30;;
10174;SDS011;18221;38.704;0.152;2023-02-13T02:55:49;4.37;;;3.60;;
10174;SDS011;18221;38.704;0.152;2023-02-13T02:58:29;4.70;;;3.50;;
10174;SDS011;18221;38.704;0.152;2023-02-13T03:01:22;5.50;;;3.70;;
10174;SDS011;18221;38.704;0.152;2023-02-13T03:04:13;5.40;;;3.53;;
10174;SDS011;18221;38.704;0.152;2023-02-13T03:07:05;6.33;;;3.50;;
10174;SDS011;18221;38.704;0.152;2023-02-13T03:09:39;3.97;;;3.20;;
10174;SDS011;18221;38.704;0.152;2023-02-13T03:12:32;4.90;;;3.50;;
10174;SDS011;18221;38.704;0.152;2023-02-13T03:15:32;4.87;;;3.57;;
10174;SDS011;18221;38.704;0.152;2023-02-13T03:18:21;7.57;;;3.70;;
10174;SDS011;18221;38.704;0.152;2023-02-13T03:21:09;6.97;;;3.40;;
10174;SDS011;18221;38.704;0.152;2023-02-13T03:24:15;4.70;;;3.40;;
10174;SDS011;18221;38.704;0.152;2023-02-13T03:26:55;7.17;;;3.43;;
10174;SDS011;18221;38.704;0.152;2023-02-13T03:29:35;4.27;;;3.40;;
10174;SDS011;18221;38.704;0.152;2023-02-13T03:32:31;3.63;;;3.03;;
10174;SDS011;18221;38.704;0.152;2023-02-13T03:38:21;4.23;;;3.30;;
10174;SDS011;18221;38.704;0.152;2023-02-13T03:41:00;3.53;;;3.23;;
10174;SDS011;18221;38.704;0.152;2023-02-13T03:43:49;4.83;;;3.47;;
10174;SDS011;18221;38.704;0.152;2023-02-13T03:46:30;4.33;;;3.43;;
10174;SDS011;18221;38.704;0.152;2023-02-13T03:49:03;4.10;;;3.70;;
10174;SDS011;18221;38.704;0.152;2023-02-13T03:51:55;5.37;;;3.20;;
10174;SDS011;18221;38.704;0.152;2023-02-13T03:54:32;3.90;;;3.47;;
10174;SDS011;18221;38.704;0.152;2023-02-13T03:57:26;5.27;;;3.57;;
10174;SDS011;18221;38.704;0.152;2023-02-13T04:00:16;4.83;;;3.80;;
10174;SDS011;18221;38.704;0.152;2023-02-13T04:02:48;4.70;;;3.90;;
10174;SDS011;18221;38.704;0.152;2023-02-13T04:05:26;8.03;;;3.97;;
10174;SDS011;18221;38.704;0.152;2023-02-13T04:08:02;5.10;;;3.97;;
10174;SDS011;18221;38.704;0.152;2023-02-13T04:10:31;6.40;;;4.13;;
10174;SDS011;18221;38.704;0.152;2023-02-13T04:13:08;5.00;;;4.53;;
10174;SDS011;18221;38.704;0.152;2023-02-13T04:15:47;4.93;;;4.30;;
10174;SDS011;18221;38.704;0.152;2023-02-13T04:18:22;7.47;;;4.80;;
10174;SDS011;18221;38.704;0.152;2023-02-13T04:20:54;7.63;;;5.50;;
10174;SDS011;18221;38.704;0.152;2023-02-13T04:23:22;5.93;;;5.10;;
10174;SDS011;18221;38.704;0.152;2023-02-13T04:25:51;6.97;;;5.07;;
10174;SDS011;18221;38.704;0.152;2023-02-13T04:28:24;7.70;;;5.47;;
10174;SDS011;18221;38.704;0.152;2023-02-13T04:30:52;10.83;;;6.27;;
10174;SDS011;18221;38.704;0.152;2023-02-13T04:33:21;7.10;;;5.80;;
10174;SDS011;18221;38.704;0.152;2023-02-13T04:35:50;6.80;;;5.90;;
10174;SDS011;18221;38.704;0.152;2023-02-13T04:38:18;8.00;;;5.83;;
10174;SDS011;18221;38.704;0.152;2023-02-13T04:40:46;8.17;;;5.97;;
10174;SDS011;18221;38.704;0.152;2023-02-13T04:43:14;9.57;;;6.13;;
10174;SDS011;18221;38.704;0.152;2023-02-13T04:45:46;8.40;;;6.20;;
10174;SDS011;18221;38.704;0.152;2023-02-13T04:48:14;7.77;;;6.87;;
10174;SDS011;18221;38.704;0.152;2023-02-13T04:50:43;11.37;;;7.70;;
10174;SDS011;18221;38.704;0.152;2023-02-13T04:53:12;9.40;;;7.37;;
10174;SDS011;18221;38.704;0.152;2023-02-13T04:55:40;8.63;;;7.73;;
10174;SDS011;18221;38.704;0.152;2023-02-13T04:58:09;8.80;;;7.57;;
10174;SDS011;18221;38.704;0.152;2023-02-13T05:00:37;9.07;;;7.87;;
10174;SDS011;18221;38.704;0.152;2023-02-13T05:03:07;10.70;;;7.83;;
10174;SDS011;18221;38.704;0.152;2023-02-13T05:05:38;13.17;;;7.93;;
10174;SDS011;18221;38.704;0.152;2023-02-13T05:08:07;8.73;;;7.40;;
10174;SDS011;18221;38.704;0.152;2023-02-13T05:10:36;9.67;;;7.53;;
10174;SDS011;18221;38.704;0.152;2023-02-13T05:13:05;8.67;;;7.70;;
10174;SDS011;18221;38.704;0.152;2023-02-13T05:15:33;11.30;;;8.83;;
10174;SDS011;18221;38.704;0.152;2023-02-13T05:18:01;9.40;;;8.40;;
10174;SDS011;18221;38.704;0.152;2023-02-13T05:20:31;11.13;;;9.33;;
10174;SDS011;18221;38.704;0.152;2023-02-13T05:22:59;11.30;;;8.53;;
10174;SDS011;18221;38.704;0.152;2023-02-13T05:25:45;12.97;;;9.07;;
10174;SDS011;18221;38.704;0.152;2023-02-13T05:28:13;11.33;;;9.27;;
10174;SDS011;18221;38.704;0.152;2023-02-13T05:30:59;9.93;;;8.53;;
10174;SDS011;18221;38.704;0.152;2023-02-13T05:33:27;11.60;;;9.13;;
10174;SDS011;18221;38.704;0.152;2023-02-13T05:35:57;11.53;;;10.30;;
10174;SDS011;18221;38.704;0.152;2023-02-13T05:38:25;12.17;;;9.93;;
10174;SDS011;18221;38.704;0.152;2023-02-13T05:40:53;10.97;;;8.77;;
10174;SDS011;18221;38.704;0.152;2023-02-13T05:43:23;11.70;;;10.07;;
10174;SDS011;18221;38.704;0.152;2023-02-13T05:45:59;12.23;;;9.23;;
10174;SDS011;18221;38.704;0.152;2023-02-13T05:48:29;12.03;;;10.77;;
10174;SDS011;18221;38.704;0.152;2023-02-13T05:50:59;13.80;;;10.43;;
10174;SDS011;18221;38.704;0.152;2023-02-13T05:53:27;13.73;;;9.53;;
10174;SDS011;18221;38.704;0.152;2023-02-13T05:55:59;13.23;;;10.00;;
10174;SDS011;18221;38.704;0.152;2023-02-13T05:58:28;12.27;;;9.67;;
10174;SDS011;18221;38.704;0.152;2023-02-13T06:00:56;11.73;;;10.13;;
10174;SDS011;18221;38.704;0.152;2023-02-13T06:03:25;11.37;;;9.20;;
10174;SDS011;18221;38.704;0.152;2023-02-13T06:05:55;12.30;;;9.23;;
10174;SDS011;18221;38.704;0.152;2023-02-13T06:08:25;9.80;;;8.47;;
10174;SDS011;18221;38.704;0.152;2023-02-13T06:10:54;10.10;;;8.60;;
10174;SDS011;18221;38.704;0.152;2023-02-13T06:13:22;10.70;;;9.13;;
10174;SDS011;18221;38.704;0.152;2023-02-13T06:15:51;10.90;;;8.87;;
10174;SDS011;18221;38.704;0.152;2023-02-13T06:18:20;12.00;;;8.47;;
10174;SDS011;18221;38.704;0.152;2023-02-13T06:20:48;10.57;;;8.93;;
10174;SDS011;18221;38.704;0.152;2023-02-13T06:23:16;12.50;;;8.80;;
10174;SDS011;18221;38.704;0.152;2023-02-13T06:25:46;12.73;;;9.60;;
10174;SDS011;18221;38.704;0.152;2023-02-13T06:28:14;13.80;;;9.30;;
10174;SDS011;18221;38.704;0.152;2023-02-13T06:30:43;11.93;;;8.60;;
10174;SDS011;18221;38.704;0.152;2023-02-13T06:33:11;10.87;;;9.50;;
10174;SDS011;18221;38.704;0.152;2023-02-13T06:35:39;10.77;;;9.00;;
10174;SDS011;18221;38.704;0.152;2023-02-13T06:38:08;10.23;;;9.13;;
10174;SDS011;18221;38.704;0.152;2023-02-13T06:40:36;9.80;;;8.80;;
10174;SDS011;18221;38.704;0.152;2023-02-13T06:43:06;11.87;;;9.30;;
10174;SDS011;18221;38.704;0.152;2023-02-13T06:45:34;12.53;;;9.00;;
10174;SDS011;18221;38.704;0.152;2023-02-13T06:48:03;10.33;;;8.80;;
10174;SDS011;18221;38.704;0.152;2023-02-13T06:50:32;9.13;;;7.93;;
10174;SDS011;18221;38.704;0.152;2023-02-13T06:53:00;13.40;;;8.23;;
10174;SDS011;18221;38.704;0.152;2023-02-13T06:55:28;11.27;;;8.00;;
10174;SDS011;18221;38.704;0.152;2023-02-13T06:57:57;8.90;;;7.87;;
10174;SDS011;18221;38.704;0.152;2023-02-13T07:00:27;12.07;;;8.77;;
10174;SDS011;18221;38.704;0.152;2023-02-13T07:02:59;10.83;;;8.30;;
10174;SDS011;18221;38.704;0.152;2023-02-13T07:05:29;9.40;;;7.80;;
10174;SDS011;18221;38.704;0.152;2023-02-13T07:07:58;9.33;;;8.33;;
10174;SDS011;18221;38.704;0.152;2023-02-13T07:10:26;11.70;;;7.40;;
10174;SDS011;18221;38.704;0.152;2023-02-13T07:12:55;9.13;;;8.23;;
10174;SDS011;18221;38.704;0.152;2023-02-13T07:15:23;9.47;;;7.33;;
10174;SDS011;18221;38.704;0.152;2023-02-13T07:17:56;10.07;;;7.30;;
10174;SDS011;18221;38.704;0.152;2023-02-13T07:20:25;10.77;;;7.70;;
10174;SDS011;18221;38.704;0.152;2023-02-13T07:22:56;8.40;;;7.40;;
10174;SDS011;18221;38.704;0.152;2023-02-13T07:25:25;10.57;;;7.30;;
10174;SDS011;18221;38.704;0.152;2023-02-13T07:27:54;8.47;;;6.50;;
10174;SDS011;18221;38.704;0.152;2023-02-13T07:30:30;9.03;;;7.43;;
10174;SDS011;18221;38.704;0.152;2023-02-13T07:33:01;8.83;;;7.47;;
10174;SDS011;18221;38.704;0.152;2023-02-13T07:35:31;8.87;;;7.93;;
10174;SDS011;18221;38.704;0.152;2023-02-13T07:38:00;8.53;;;7.00;;
10174;SDS011;18221;38.704;0.152;2023-02-13T07:40:28;8.93;;;7.73;;
10174;SDS011;18221;38.704;0.152;2023-02-13T07:42:59;10.20;;;7.70;;
10174;SDS011;18221;38.704;0.152;2023-02-13T07:45:27;11.37;;;7.87;;
10174;SDS011;18221;38.704;0.152;2023-02-13T07:47:56;9.43;;;7.10;;
10174;SDS011;18221;38.704;0.152;2023-02-13T07:50:26;8.70;;;7.67;;
10174;SDS011;18221;38.704;0.152;2023-02-13T07:52:55;8.73;;;7.30;;
10174;SDS011;18221;38.704;0.152;2023-02-13T07:55:25;9.43;;;7.20;;
10174;SDS011;18221;38.704;0.152;2023-02-13T07:57:54;8.30;;;7.40;;
10174;SDS011;18221;38.704;0.152;2023-02-13T08:00:23;8.30;;;7.43;;
10174;SDS011;18221;38.704;0.152;2023-02-13T08:02:51;7.90;;;6.93;;
10174;SDS011;18221;38.704;0.152;2023-02-13T08:05:20;9.10;;;7.00;;
10174;SDS011;18221;38.704;0.152;2023-02-13T08:07:50;8.07;;;6.70;;
10174;SDS011;18221;38.704;0.152;2023-02-13T08:10:19;9.83;;;7.07;;
10174;SDS011;18221;38.704;0.152;2023-02-13T08:13:05;9.50;;;7.63;;
10174;SDS011;18221;38.704;0.152;2023-02-13T08:15:35;8.40;;;7.13;;
10174;SDS011;18221;38.704;0.152;2023-02-13T08:18:04;7.20;;;6.50;;
10174;SDS011;18221;38.704;0.152;2023-02-13T08:20:32;11.10;;;6.70;;
10174;SDS011;18221;38.704;0.152;2023-02-13T08:23:03;8.77;;;6.70;;
10174;SDS011;18221;38.704;0.152;2023-02-13T08:25:36;10.57;;;7.03;;
10174;SDS011;18221;38.704;0.152;2023-02-13T08:28:05;7.03;;;6.30;;
10174;SDS011;18221;38.704;0.152;2023-02-13T08:30:34;8.67;;;6.53;;
10174;SDS011;18221;38.704;0.152;2023-02-13T08:33:02;8.00;;;6.13;;
10174;SDS011;18221;38.704;0.152;2023-02-13T08:35:31;8.90;;;6.73;;
10174;SDS011;18221;38.704;0.152;2023-02-13T08:38:00;6.93;;;5.97;;
10174;SDS011;18221;38.704;0.152;2023-02-13T08:40:31;7.57;;;6.40;;
10174;SDS011;18221;38.704;0.152;2023-02-13T08:43:00;7.60;;;6.03;;
10174;SDS011;18221;38.704;0.152;2023-02-13T08:45:31;8.67;;;5.93;;
10174;SDS011;18221;38.704;0.152;2023-02-13T08:48:01;7.40;;;5.90;;
10174;SDS011;18221;38.704;0.152;2023-02-13T08:50:31;9.10;;;6.47;;
10174;SDS011;18221;38.704;0.152;2023-02-13T08:53:00;6.57;;;5.87;;
10174;SDS011;18221;38.704;0.152;2023-02-13T08:55:30;8.10;;;6.30;;
10174;SDS011;18221;38.704;0.152;2023-02-13T08:57:58;6.67;;;5.80;;
10174;SDS011;18221;38.704;0.152;2023-02-13T09:00:27;9.37;;;5.87;;
10174;SDS011;18221;38.704;0.152;2023-02-13T09:02:58;8.00;;;6.87;;
10174;SDS011;18221;38.704;0.152;2023-02-13T09:05:28;7.90;;;5.97;;
10174;SDS011;18221;38.704;0.152;2023-02-13T09:07:58;7.20;;;6.50;;
10174;SDS011;18221;38.704;0.152;2023-02-13T09:10:30;8.67;;;5.70;;
10174;SDS011;18221;38.704;0.152;2023-02-13T09:12:59;9.10;;;6.93;;
10174;SDS011;18221;38.704;0.152;2023-02-13T09:15:27;9.37;;;6.60;;
10174;SDS011;18221;38.704;0.152;2023-02-13T09:17:56;7.47;;;6.57;;
10174;SDS011;18221;38.704;0.152;2023-02-13T09:20:24;8.13;;;6.23;;
10174;SDS011;18221;38.704;0.152;2023-02-13T09:22:53;9.43;;;6.10;;
10174;SDS011;18221;38.704;0.152;2023-02-13T09:25:22;7.13;;;6.50;;
10174;SDS011;18221;38.704;0.152;2023-02-13T09:27:52;9.67;;;6.20;;
10174;SDS011;18221;38.704;0.152;2023-02-13T09:30:20;9.13;;;6.47;;
10174;SDS011;18221;38.704;0.152;2023-02-13T09:32:49;7.70;;;6.60;;
10174;SDS011;18221;38.704;0.152;2023-02-13T09:35:18;7.30;;;5.97;;
10174;SDS011;18221;38.704;0.152;2023-02-13T09:37:48;7.40;;;5.90;;
10174;SDS011;18221;38.704;0.152;2023-02-13T09:40:17;7.23;;;6.13;;
10174;SDS011;18221;38.704;0.152;2023-02-13T09:42:59;7.37;;;6.47;;
10174;SDS011;18221;38.704;0.152;2023-02-13T09:45:33;7.27;;;6.03;;
10174;SDS011;18221;38.704;0.152;2023-02-13T09:48:04;6.90;;;6.20;;
10174;SDS011;18221;38.704;0.152;2023-02-13T09:50:36;9.17;;;6.70;;
10174;SDS011;18221;38.704;0.152;2023-02-13T09:53:05;8.87;;;6.17;;
10174;SDS011;18221;38.704;0.152;2023-02-13T09:55:39;7.33;;;6.47;;
10174;SDS011;18221;38.704;0.152;2023-02-13T09:58:30;9.97;;;6.97;;
10174;SDS011;18221;38.704;0.152;2023-02-13T10:01:15;9.87;;;6.50;;
10174;SDS011;18221;38.704;0.152;2023-02-13T10:04:07;7.93;;;6.30;;
10174;SDS011;18221;38.704;0.152;2023-02-13T10:07:03;9.80;;;6.23;;
10174;SDS011;18221;38.704;0.152;2023-02-13T10:09:48;9.43;;;6.20;;
10174;SDS011;18221;38.704;0.152;2023-02-13T10:12:37;6.80;;;5.53;;
10174;SDS011;18221;38.704;0.152;2023-02-13T10:15:30;6.67;;;5.60;;
10174;SDS011;18221;38.704;0.152;2023-02-13T10:18:09;7.07;;;5.90;;
10174;SDS011;18221;38.704;0.152;2023-02-13T10:20:44;9.90;;;6.60;;
10174;SDS011;18221;38.704;0.152;2023-02-13T10:23:18;7.37;;;5.33;;
10174;SDS011;18221;38.704;0.152;2023-02-13T10:25:54;8.50;;;5.60;;
10174;SDS011;18221;38.704;0.152;2023-02-13T10:28:31;7.20;;;5.73;;
10174;SDS011;18221;38.704;0.152;2023-02-13T10:31:07;6.43;;;5.70;;
10174;SDS011;18221;38.704;0.152;2023-02-13T10:33:41;8.53;;;6.57;;
10174;SDS011;18221;38.704;0.152;2023-02-13T10:36:17;6.27;;;5.67;;
10174;SDS011;18221;38.704;0.152;2023-02-13T10:38:53;6.93;;;6.03;;
10174;SDS011;18221;38.704;0.152;2023-02-13T10:41:49;9.20;;;6.13;;
10174;SDS011;18221;38.704;0.152;2023-02-13T10:44:34;7.50;;;6.40;;
10174;SDS011;18221;38.704;0.152;2023-02-13T10:47:22;7.97;;;6.60;;
10174;SDS011;18221;38.704;0.152;2023-02-13T10:50:13;7.53;;;6.20;;
10174;SDS011;18221;38.704;0.152;2023-02-13T10:52:55;9.93;;;6.80;;
10174;SDS011;18221;38.704;0.152;2023-02-13T10:58:38;7.33;;;6.53;;
10174;SDS011;18221;38.704;0.152;2023-02-13T11:01:23;12.07;;;7.03;;
10174;SDS011;18221;38.704;0.152;2023-02-13T11:04:05;9.80;;;7.23;;
10174;SDS011;18221;38.704;0.152;2023-02-13T11:06:37;12.10;;;7.03;;
10174;SDS011;18221;38.704;0.152;2023-02-13T11:09:21;7.60;;;6.80;;
10174;SDS011;18221;38.704;0.152;2023-02-13T11:11:50;10.07;;;6.43;;
10174;SDS011;18221;38.704;0.152;2023-02-13T11:14:20;8.77;;;7.13;;
10174;SDS011;18221;38.704;0.152;2023-02-13T11:16:52;9.53;;;7.13;;
10174;SDS011;18221;38.704;0.152;2023-02-13T11:19:28;9.27;;;8.13;;
10174;SDS011;18221;38.704;0.152;2023-02-13T11:22:02;10.40;;;7.97;;
10174;SDS011;18221;38.704;0.152;2023-02-13T11:24:33;8.00;;;6.70;;
10174;SDS011;18221;38.704;0.152;2023-02-13T11:27:05;7.40;;;6.20;;
10174;SDS011;18221;38.704;0.152;2023-02-13T11:29:49;6.00;;;5.20;;
10174;SDS011;18221;38.704;0.152;2023-02-13T11:32:21;8.37;;;5.77;;
10174;SDS011;18221;38.704;0.152;2023-02-13T11:34:52;7.27;;;5.87;;
10174;SDS011;18221;38.704;0.152;2023-02-13T11:37:25;7.67;;;6.30;;
10174;SDS011;18221;38.704;0.152;2023-02-13T11:39:56;6.33;;;5.73;;
10174;SDS011;18221;38.704;0.152;2023-02-13T11:42:27;7.10;;;6.07;;
10174;SDS011;18221;38.704;0.152;2023-02-13T11:45:00;7.83;;;5.83;;
10174;SDS011;18221;38.704;0.152;2023-02-13T11:47:33;7.23;;;5.10;;
10174;SDS011;18221;38.704;0.152;2023-02-13T11:50:18;8.63;;;6.53;;
10174;SDS011;18221;38.704;0.152;2023-02-13T11:52:54;6.33;;;5.70;;
10174;SDS011;18221;38.704;0.152;2023-02-13T11:55:29;7.43;;;5.60;;
10174;SDS011;18221;38.704;0.152;2023-02-13T11:58:00;6.67;;;5.80;;
10174;SDS011;18221;38.704;0.152;2023-02-13T12:00:47;7.00;;;5.67;;
10174;SDS011;18221;38.704;0.152;2023-02-13T12:03:23;9.50;;;4.90;;
10174;SDS011;18221;38.704;0.152;2023-02-13T12:06:03;6.40;;;5.70;;
10174;SDS011;18221;38.704;0.152;2023-02-13T12:08:39;8.17;;;5.30;;
10174;SDS011;18221;38.704;0.152;2023-02-13T12:11:15;4.30;;;3.90;;
10174;SDS011;18221;38.704;0.152;2023-02-13T12:13:51;4.57;;;4.07;;
10174;SDS011;18221;38.704;0.152;2023-02-13T12:16:30;5.93;;;3.83;;
10174;SDS011;18221;38.704;0.152;2023-02-13T12:19:04;3.83;;;3.00;;
10174;SDS011;18221;38.704;0.152;2023-02-13T12:21:45;5.30;;;3.43;;
10174;SDS011;18221;38.704;0.152;2023-02-13T12:25:03;5.07;;;3.60;;
10174;SDS011;18221;38.704;0.152;2023-02-13T12:28:08;4.33;;;3.30;;
10174;SDS011;18221;38.704;0.152;2023-02-13T12:34:16;7.63;;;3.77;;
10174;SDS011;18221;38.704;0.152;2023-02-13T12:37:41;5.47;;;4.13;;
10174;SDS011;18221;38.704;0.152;2023-02-13T12:47:14;4.30;;;3.53;;
10174;SDS011;18221;38.704;0.152;2023-02-13T12:49:51;4.73;;;3.70;;
10174;SDS011;18221;38.704;0.152;2023-02-13T12:53:05;3.90;;;3.40;;
10174;SDS011;18221;38.704;0.152;2023-02-13T12:56:02;4.73;;;3.10;;
10174;SDS011;18221;38.704;0.152;2023-02-13T12:58:54;5.00;;;3.70;;
10174;SDS011;18221;38.704;0.152;2023-02-13T13:01:42;4.13;;;3.30;;
10174;SDS011;18221;38.704;0.152;2023-02-13T13:04:47;3.30;;;3.00;;
10174;SDS011;18221;38.704;0.152;2023-02-13T13:07:39;3.73;;;3.20;;
10174;SDS011;18221;38.704;0.152;2023-02-13T13:10:37;5.13;;;3.73;;
10174;SDS011;18221;38.704;0.152;2023-02-13T13:13:35;3.90;;;3.10;;
10174;SDS011;18221;38.704;0.152;2023-02-13T13:16:19;3.77;;;2.80;;
10174;SDS011;18221;38.704;0.152;2023-02-13T13:19:01;4.97;;;2.67;;
10174;SDS011;18221;38.704;0.152;2023-02-13T13:21:43;3.93;;;2.80;;
10174;SDS011;18221;38.704;0.152;2023-02-13T13:24:27;6.50;;;3.27;;
10174;SDS011;18221;38.704;0.152;2023-02-13T13:27:16;3.77;;;2.97;;
10174;SDS011;18221;38.704;0.152;2023-02-13T13:29:52;3.57;;;2.73;;
10174;SDS011;18221;38.704;0.152;2023-02-13T13:32:25;2.83;;;2.53;;
10174;SDS011;18221;38.704;0.152;2023-02-13T13:34:55;3.03;;;2.67;;
10174;SDS011;18221;38.704;0.152;2023-02-13T13:37:26;3.00;;;2.77;;
10174;SDS011;18221;38.704;0.152;2023-02-13T13:40:02;4.73;;;2.97;;
10174;SDS011;18221;38.704;0.152;2023-02-13T13:42:58;3.63;;;3.03;;
10174;SDS011;18221;38.704;0.152;2023-02-13T13:45:36;5.83;;;3.87;;
10174;SDS011;18221;38.704;0.152;2023-02-13T13:48:29;4.40;;;3.47;;
10174;SDS011;18221;38.704;0.152;2023-02-13T13:51:25;3.10;;;2.60;;
10174;SDS011;18221;38.704;0.152;2023-02-13T13:57:04;4.33;;;3.30;;
10174;SDS011;18221;38.704;0.152;2023-02-13T13:59:58;3.17;;;2.87;;
10174;SDS011;18221;38.704;0.152;2023-02-13T14:03:11;4.33;;;2.90;;
10174;SDS011;18221;38.704;0.152;2023-02-13T14:06:04;4.00;;;3.20;;
10174;SDS011;18221;38.704;0.152;2023-02-13T14:08:55;4.27;;;3.20;;
10174;SDS011;18221;38.704;0.152;2023-02-13T14:11:29;5.20;;;3.20;;
10174;SDS011;18221;38.704;0.152;2023-02-13T14:20:33;5.03;;;2.53;;
10174;SDS011;18221;38.704;0.152;2023-02-13T14:23:25;4.63;;;3.00;;
10174;SDS011;18221;38.704;0.152;2023-02-13T14:26:11;3.87;;;2.80;;
10174;SDS011;18221;38.704;0.152;2023-02-13T14:28:54;2.93;;;2.67;;
10174;SDS011;18221;38.704;0.152;2023-02-13T14:31:31;3.57;;;2.70;;
10174;SDS011;18221;38.704;0.152;2023-02-13T14:34:05;5.13;;;3.00;;
10174;SDS011;18221;38.704;0.152;2023-02-13T14:36:45;4.10;;;2.80;;
10174;SDS011;18221;38.704;0.152;2023-02-13T14:39:31;3.67;;;3.00;;
10174;SDS011;18221;38.704;0.152;2023-02-13T14:42:01;3.07;;;2.50;;
10174;SDS011;18221;38.704;0.152;2023-02-13T14:44:47;3.27;;;2.80;;
10174;SDS011;18221;38.704;0.152;2023-02-13T14:47:21;5.23;;;3.60;;
10174;SDS011;18221;38.704;0.152;2023-02-13T14:50:00;3.07;;;2.83;;
10174;SDS011;18221;38.704;0.152;2023-02-13T14:52:33;7.87;;;3.47;;
10174;SDS011;18221;38.704;0.152;2023-02-13T14:55:10;3.30;;;3.00;;
10174;SDS011;18221;38.704;0.152;2023-02-13T15:00:37;3.47;;;2.90;;
10174;SDS011;18221;38.704;0.152;2023-02-13T15:03:21;4.23;;;3.13;;
10174;SDS011;18221;38.704;0.152;2023-02-13T15:05:58;4.23;;;3.00;;
10174;SDS011;18221;38.704;0.152;2023-02-13T15:08:37;3.80;;;3.40;;
10174;SDS011;18221;38.704;0.152;2023-02-13T15:11:21;3.80;;;2.90;;
10174;SDS011;18221;38.704;0.152;2023-02-13T15:14:18;2.90;;;2.70;;
10174;SDS011;18221;38.704;0.152;2023-02-13T15:16:54;3.53;;;3.10;;
10174;SDS011;18221;38.704;0.152;2023-02-13T15:19:30;5.27;;;3.00;;
10174;SDS011;18221;38.704;0.152;2023-02-13T15:22:05;3.03;;;2.73;;
10174;SDS011;18221;38.704;0.152;2023-02-13T15:24:43;3.47;;;2.97;;
10174;SDS011;18221;38.704;0.152;2023-02-13T15:27:16;5.30;;;3.30;;
10174;SDS011;18221;38.704;0.152;2023-02-13T15:29:54;3.50;;;2.97;;
10174;SDS011;18221;38.704;0.152;2023-02-13T15:32:29;4.60;;;3.40;;
10174;SDS011;18221;38.704;0.152;2023-02-13T15:35:03;4.10;;;3.70;;
10174;SDS011;18221;38.704;0.152;2023-02-13T15:37:50;4.73;;;4.33;;
10174;SDS011;18221;38.704;0.152;2023-02-13T15:40:23;5.07;;;3.60;;
10174;SDS011;18221;38.704;0.152;2023-02-13T15:42:53;4.90;;;3.60;;
10174;SDS011;18221;38.704;0.152;2023-02-13T15:45:24;4.10;;;3.70;;
10174;SDS011;18221;38.704;0.152;2023-02-13T15:47:55;4.07;;;3.27;;
10174;SDS011;18221;38.704;0.152;2023-02-13T15:50:25;4.57;;;3.53;;
10174;SDS011;18221;38.704;0.152;2023-02-13T15:53:01;3.13;;;2.83;;
10174;SDS011;18221;38.704;0.152;2023-02-13T15:55:38;6.53;;;3.77;;
10174;SDS011;18221;38.704;0.152;2023-02-13T15:58:08;4.17;;;3.07;;
10174;SDS011;18221;38.704;0.152;2023-02-13T16:00:40;3.70;;;2.70;;
10174;SDS011;18221;38.704;0.152;2023-02-13T16:03:12;3.93;;;2.80;;
10174;SDS011;18221;38.704;0.152;2023-02-13T16:05:44;4.87;;;3.10;;
10174;SDS011;18221;38.704;0.152;2023-02-13T16:08:25;4.00;;;2.93;;
10174;SDS011;18221;38.704;0.152;2023-02-13T16:13:59;3.40;;;3.10;;
10174;SDS011;18221;38.704;0.152;2023-02-13T16:16:50;3.07;;;2.73;;
10174;SDS011;18221;38.704;0.152;2023-02-13T16:19:23;3.20;;;2.90;;
10174;SDS011;18221;38.704;0.152;2023-02-13T16:21:57;3.20;;;2.90;;